createdAt,value
2018-12-31T00:02:46.170Z,46.50
2018-12-31T00:05:34.302Z,38.17
2018-12-31T00:08:17.103Z,41.45
2018-12-31T00:10:58.824Z,39.63
2018-12-31T00:13:27.668Z,34.53
2018-12-31T00:16:15.754Z,39.58
2018-12-31T00:19:03.898Z,42.23
2018-12-31T00:21:45.641Z,39.13
2018-12-31T00:24:33.654Z,38.67
2018-12-31T00:27:02.681Z,39.05
2018-12-31T00:29:31.434Z,36.63
2018-12-31T00:32:19.588Z,36.53
2018-12-31T00:35:01.557Z,31.00
2018-12-31T00:37:49.693Z,29.18
2018-12-31T00:40:32.546Z,36.05
2018-12-31T00:43:20.616Z,31.37
2018-12-31T00:45:49.367Z,37.28
2018-12-31T00:48:37.454Z,31.37
2018-12-31T00:51:25.480Z,34.25
2018-12-31T00:53:54.551Z,32.60
2018-12-31T00:56:42.648Z,36.60
2018-12-31T00:59:30.694Z,30.37
2018-12-31T01:02:13.001Z,31.33
2018-12-31T01:05:01.044Z,31.65
2018-12-31T01:07:44.709Z,38.33
2018-12-31T01:10:32.396Z,38.13
2018-12-31T01:13:14.757Z,29.98
2018-12-31T01:16:02.881Z,39.75
2018-12-31T01:18:45.232Z,29.85
2018-12-31T01:21:33.324Z,30.60
2018-12-31T01:24:22.040Z,24.10
2018-12-31T01:27:10.114Z,24.18
2018-12-31T01:29:39.498Z,23.73
2018-12-31T01:32:27.526Z,22.85
2018-12-31T01:35:10.476Z,25.82
2018-12-31T01:37:58.618Z,24.55
2018-12-31T01:40:27.297Z,21.70
2018-12-31T01:42:56.123Z,27.10
2018-12-31T01:45:44.166Z,28.62
2018-12-31T01:48:26.868Z,35.00
2018-12-31T01:51:11.404Z,32.28
2018-12-31T01:53:59.697Z,24.18
2018-12-31T01:56:41.623Z,22.45
2018-12-31T01:59:29.882Z,25.40
2018-12-31T02:02:11.265Z,25.25
2018-12-31T02:04:59.407Z,29.25
2018-12-31T02:07:28.083Z,27.10
2018-12-31T02:09:56.774Z,27.42
2018-12-31T02:12:25.444Z,30.15
2018-12-31T02:14:54.727Z,26.23
2018-12-31T02:17:23.673Z,29.40
2018-12-31T02:19:52.804Z,24.65
2018-12-31T02:22:41.179Z,30.45
2018-12-31T02:25:24.750Z,26.05
2018-12-31T02:28:06.885Z,27.85
2018-12-31T02:30:55.266Z,23.75
2018-12-31T02:33:40.346Z,25.00
2018-12-31T02:36:28.919Z,26.65
2018-12-31T02:38:57.633Z,28.00
2018-12-31T02:41:45.686Z,28.75
2018-12-31T02:44:33.730Z,20.77
2018-12-31T02:47:02.520Z,28.57
2018-12-31T02:49:50.619Z,18.85
2018-12-31T02:52:38.625Z,22.48
2018-12-31T02:55:20.809Z,25.27
2018-12-31T02:58:10.420Z,19.35
2018-12-31T03:00:39.247Z,18.98
2018-12-31T03:03:08.005Z,15.25
2018-12-31T03:05:56.094Z,20.17
2018-12-31T03:08:44.206Z,16.32
2018-12-31T03:11:26.919Z,21.42
2018-12-31T03:14:15.085Z,15.03
2018-12-31T03:16:43.824Z,19.77
2018-12-31T03:19:32.094Z,17.37
2018-12-31T03:22:20.241Z,21.97
2018-12-31T03:24:49.041Z,17.92
2018-12-31T03:27:17.792Z,19.67
2018-12-31T03:29:46.877Z,18.90
2018-12-31T03:32:34.946Z,14.00
2018-12-31T03:35:16.806Z,17.42
2018-12-31T03:37:45.602Z,19.67
2018-12-31T03:40:33.736Z,14.65
2018-12-31T03:43:15.409Z,17.20
2018-12-31T03:46:03.488Z,20.55
2018-12-31T03:48:32.325Z,16.25
2018-12-31T03:51:14.053Z,18.05
2018-12-31T03:54:02.051Z,17.30
2018-12-31T03:56:44.439Z,17.48
2018-12-31T03:59:32.378Z,17.32
2018-12-31T04:02:20.420Z,18.00
2018-12-31T04:05:03.430Z,20.23
2018-12-31T04:07:32.339Z,14.30
2018-12-31T04:10:20.472Z,21.82
2018-12-31T04:13:08.641Z,18.25
2018-12-31T04:15:54.169Z,17.10
2018-12-31T04:18:36.219Z,17.95
2018-12-31T04:21:24.313Z,13.95
2018-12-31T04:24:05.954Z,17.60
2018-12-31T04:26:54.025Z,17.32
2018-12-31T04:29:36.243Z,20.30
2018-12-31T04:32:24.340Z,18.12
2018-12-31T04:35:12.412Z,14.68
2018-12-31T04:38:00.472Z,17.05
2018-12-31T04:40:29.634Z,15.85
2018-12-31T04:43:17.695Z,17.25
2018-12-31T04:45:59.265Z,15.23
2018-12-31T04:48:41.056Z,14.38
2018-12-31T04:51:29.136Z,16.10
2018-12-31T04:53:58.131Z,12.75
2018-12-31T04:56:46.186Z,11.90
2018-12-31T04:59:14.942Z,13.28
2018-12-31T05:02:02.956Z,11.35
2018-12-31T05:04:50.980Z,12.75
2018-12-31T05:07:19.871Z,9.60
2018-12-31T05:10:07.949Z,12.70
2018-12-31T05:12:50.823Z,9.70
2018-12-31T05:15:32.711Z,11.05
2018-12-31T05:18:20.730Z,10.95
2018-12-31T05:21:08.756Z,11.33
2018-12-31T05:23:37.700Z,10.58
2018-12-31T05:26:25.755Z,8.78
2018-12-31T05:29:08.170Z,8.70
2018-12-31T05:31:36.965Z,8.30
2018-12-31T05:34:05.778Z,8.53
2018-12-31T05:36:53.865Z,10.75
2018-12-31T05:39:24.316Z,9.88
2018-12-31T05:42:12.392Z,9.73
2018-12-31T05:44:54.104Z,10.28
2018-12-31T05:47:42.189Z,11.33
2018-12-31T05:50:24.198Z,12.15
2018-12-31T05:53:12.368Z,11.70
2018-12-31T05:55:58.022Z,13.85
2018-12-31T05:58:26.964Z,13.35
2018-12-31T06:01:15.050Z,11.25
2018-12-31T06:04:03.121Z,14.70
2018-12-31T06:06:31.884Z,13.60
2018-12-31T06:09:00.704Z,13.75
2018-12-31T06:11:48.905Z,13.95
2018-12-31T06:14:37.003Z,12.10
2018-12-31T06:17:18.681Z,15.72
2018-12-31T06:20:06.891Z,12.15
2018-12-31T06:22:48.662Z,13.05
2018-12-31T06:25:36.776Z,14.75
2018-12-31T06:28:18.290Z,14.55
2018-12-31T06:31:06.377Z,13.83
2018-12-31T06:33:47.974Z,14.10
2018-12-31T06:36:36.723Z,15.38
2018-12-31T06:39:19.508Z,14.05
2018-12-31T06:42:07.541Z,14.15
2018-12-31T06:44:49.234Z,14.93
2018-12-31T06:47:18.066Z,16.50
2018-12-31T06:50:06.126Z,16.35
2018-12-31T06:52:54.126Z,22.05
2018-12-31T06:55:37.563Z,17.48
2018-12-31T06:58:25.835Z,14.98
2018-12-31T07:01:08.342Z,14.05
2018-12-31T07:03:56.431Z,12.68
2018-12-31T07:06:40.375Z,18.90
2018-12-31T07:09:28.416Z,13.83
2018-12-31T07:12:09.719Z,12.63
2018-12-31T07:14:38.455Z,12.55
2018-12-31T07:17:07.265Z,11.33
2018-12-31T07:19:35.986Z,20.37
2018-12-31T07:22:04.753Z,12.60
2018-12-31T07:24:33.491Z,12.98
2018-12-31T07:27:02.190Z,11.22
2018-12-31T07:29:50.109Z,12.80
2018-12-31T07:32:38.169Z,13.40
2018-12-31T07:35:19.506Z,8.43
2018-12-31T07:37:48.324Z,11.60
2018-12-31T07:40:36.368Z,18.10
2018-12-31T07:43:24.382Z,8.75
2018-12-31T07:46:12.349Z,12.40
2018-12-31T07:48:54.293Z,10.30
2018-12-31T07:51:42.326Z,7.85
2018-12-31T07:54:24.387Z,8.55
2018-12-31T07:57:12.412Z,8.63
2018-12-31T07:59:54.369Z,8.83
2018-12-31T08:02:42.340Z,10.90
2018-12-31T08:05:24.216Z,10.70
2018-12-31T08:08:12.177Z,8.68
2018-12-31T08:10:54.610Z,8.88
2018-12-31T08:13:42.598Z,14.03
2018-12-31T08:16:23.717Z,8.75
2018-12-31T08:19:11.647Z,13.40
2018-12-31T08:21:53.713Z,8.80
2018-12-31T08:24:41.655Z,7.60
2018-12-31T08:27:23.549Z,7.72
2018-12-31T08:30:11.487Z,7.72
2018-12-31T08:32:52.870Z,8.55
2018-12-31T08:35:40.915Z,7.40
2018-12-31T08:38:22.654Z,7.53
2018-12-31T08:41:03.839Z,7.42
2018-12-31T08:43:51.853Z,11.30
2018-12-31T08:46:39.880Z,9.75
2018-12-31T08:49:21.733Z,8.90
2018-12-31T08:52:04.390Z,8.18
2018-12-31T08:54:46.356Z,7.83
2018-12-31T08:57:34.340Z,8.80
2018-12-31T09:00:16.273Z,8.90
2018-12-31T09:03:04.397Z,8.95
2018-12-31T09:05:46.221Z,10.00
2018-12-31T09:08:34.862Z,9.98
2018-12-31T09:11:17.123Z,12.95
2018-12-31T09:14:05.093Z,11.30
2018-12-31T09:16:47.125Z,10.55
2018-12-31T09:19:35.126Z,12.43
2018-12-31T09:22:16.523Z,13.38
2018-12-31T09:24:57.285Z,10.53
2018-12-31T09:27:38.603Z,11.63
2018-12-31T09:30:26.516Z,13.05
2018-12-31T09:33:08.334Z,13.40
2018-12-31T09:35:56.476Z,14.87
2018-12-31T09:38:38.113Z,22.73
2018-12-31T09:41:26.118Z,15.70
2018-12-31T09:44:07.697Z,17.15
2018-12-31T09:46:55.756Z,16.15
2018-12-31T09:49:37.007Z,15.75
2018-12-31T09:52:18.289Z,17.52
2018-12-31T09:55:06.339Z,15.28
2018-12-31T09:57:48.226Z,18.42
2018-12-31T10:00:36.449Z,20.77
2018-12-31T10:03:18.425Z,19.00
2018-12-31T10:06:06.465Z,21.20
2018-12-31T10:08:49.360Z,19.07
2018-12-31T10:11:37.575Z,19.23
2018-12-31T10:14:18.940Z,21.40
2018-12-31T10:17:07.052Z,28.52
2018-12-31T10:19:48.542Z,20.12
2018-12-31T10:22:36.662Z,22.87
2018-12-31T10:25:18.457Z,18.70
2018-12-31T10:28:06.574Z,23.15
2018-12-31T10:30:47.940Z,23.70
2018-12-31T10:33:35.959Z,29.27
2018-12-31T10:36:17.376Z,21.52
2018-12-31T10:38:51.097Z,21.93
2018-12-31T10:44:00.866Z,19.05
2018-12-31T10:46:48.986Z,21.30
2018-12-31T10:49:30.955Z,19.60
2018-12-31T10:52:14.115Z,24.23
2018-12-31T10:54:55.830Z,20.10
2018-12-31T10:57:24.500Z,20.27
2018-12-31T10:59:53.237Z,19.90
2018-12-31T11:02:41.343Z,25.08
2018-12-31T11:05:22.508Z,24.63
2018-12-31T11:07:51.134Z,25.23
2018-12-31T11:10:39.172Z,27.07
2018-12-31T11:13:08.062Z,20.77
2018-12-31T11:15:56.035Z,23.00
2018-12-31T11:18:38.269Z,19.10
2018-12-31T11:21:07.086Z,19.00
2018-12-31T11:23:55.879Z,20.75
2018-12-31T11:26:38.424Z,22.80
2018-12-31T11:29:20.387Z,18.12
2018-12-31T11:32:08.407Z,20.82
2018-12-31T11:34:49.946Z,17.32
2018-12-31T11:37:38.127Z,23.50
2018-12-31T11:40:19.950Z,19.67
2018-12-31T11:43:08.101Z,18.20
2018-12-31T11:45:50.302Z,12.30
2018-12-31T11:48:38.634Z,13.85
2018-12-31T11:51:07.450Z,15.55
2018-12-31T11:54:10.780Z,11.53
2018-12-31T11:56:40.383Z,17.92
2018-12-31T11:59:23.375Z,11.30
2018-12-31T12:02:05.628Z,16.12
2018-12-31T12:04:53.730Z,11.75
2018-12-31T12:07:22.518Z,9.13
2018-12-31T12:09:51.873Z,10.75
2018-12-31T12:12:40.471Z,13.88
2018-12-31T12:15:28.487Z,9.98
2018-12-31T12:18:11.940Z,14.03
2018-12-31T12:20:59.941Z,9.45
2018-12-31T12:23:28.847Z,7.72
2018-12-31T12:25:57.571Z,7.67
2018-12-31T12:28:45.603Z,8.65
2018-12-31T12:31:14.861Z,10.43
2018-12-31T12:33:43.652Z,9.98
2018-12-31T12:36:31.945Z,9.75
2018-12-31T12:39:00.709Z,10.30
2018-12-31T12:41:48.781Z,14.35
2018-12-31T12:44:17.832Z,13.85
2018-12-31T12:47:05.945Z,10.53
2018-12-31T12:49:49.168Z,16.15
2018-12-31T12:52:37.202Z,14.30
2018-12-31T12:55:19.679Z,14.83
2018-12-31T12:58:07.489Z,17.40
2018-12-31T13:00:50.535Z,30.15
2018-12-31T13:03:32.243Z,16.75
2018-12-31T13:06:20.418Z,15.63
2018-12-31T13:09:05.372Z,19.50
2018-12-31T13:11:34.225Z,20.55
2018-12-31T13:14:22.478Z,15.65
2018-12-31T13:17:04.547Z,14.40
2018-12-31T13:19:52.506Z,18.80
2018-12-31T13:22:21.251Z,17.15
2018-12-31T13:25:09.276Z,14.95
2018-12-31T13:27:51.120Z,17.35
2018-12-31T13:30:19.869Z,16.67
2018-12-31T13:32:48.712Z,14.95
2018-12-31T13:35:36.844Z,16.55
2018-12-31T13:38:25.490Z,16.87
2018-12-31T13:41:08.921Z,17.40
2018-12-31T13:43:57.071Z,23.65
2018-12-31T13:46:38.449Z,16.70
2018-12-31T13:49:26.574Z,20.10
2018-12-31T13:51:55.287Z,25.62
2018-12-31T13:54:44.279Z,18.77
2018-12-31T13:57:32.370Z,19.50
2018-12-31T14:00:15.025Z,21.60
2018-12-31T14:03:03.067Z,16.97
2018-12-31T14:05:45.704Z,22.17
2018-12-31T14:08:34.105Z,21.15
2018-12-31T14:11:16.051Z,21.20
2018-12-31T14:13:45.759Z,21.57
2018-12-31T14:16:33.975Z,23.90
2018-12-31T14:19:15.359Z,23.07
2018-12-31T14:22:03.445Z,23.55
2018-12-31T14:24:59.347Z,24.77
2018-12-31T14:27:47.512Z,19.87
2018-12-31T14:30:16.988Z,25.92
2018-12-31T14:35:37.139Z,21.75
2018-12-31T14:38:19.096Z,24.10
2018-12-31T14:40:47.919Z,23.80
2018-12-31T14:43:36.318Z,26.05
2018-12-31T14:46:18.417Z,21.40
2018-12-31T14:48:47.594Z,28.10
2018-12-31T14:51:35.699Z,23.55
2018-12-31T14:54:04.464Z,30.57
2018-12-31T14:56:33.260Z,29.10
2018-12-31T14:59:21.660Z,27.48
2018-12-31T15:02:05.842Z,23.70
2018-12-31T15:04:54.073Z,32.93
2018-12-31T15:07:35.885Z,28.05
2018-12-31T15:10:17.830Z,23.90
2018-12-31T15:12:46.906Z,25.77
2018-12-31T15:15:15.701Z,24.60
2018-12-31T15:18:03.922Z,26.45
2018-12-31T15:20:32.813Z,29.70
2018-12-31T15:23:20.981Z,28.60
2018-12-31T15:26:02.870Z,28.35
2018-12-31T15:28:51.258Z,28.25
2018-12-31T15:31:20.229Z,27.05
2018-12-31T15:34:08.707Z,26.82
2018-12-31T15:36:50.959Z,24.70
2018-12-31T15:39:20.328Z,32.38
2018-12-31T15:42:08.854Z,25.75
2018-12-31T15:44:38.034Z,30.90
2018-12-31T15:47:26.250Z,30.72
2018-12-31T15:49:55.156Z,31.52
2018-12-31T15:52:44.874Z,31.95
2018-12-31T15:55:32.964Z,33.23
2018-12-31T15:58:16.684Z,33.25
2018-12-31T16:01:04.749Z,46.60
2018-12-31T16:03:33.764Z,41.42
2018-12-31T16:06:21.885Z,33.50
2018-12-31T16:09:10.272Z,39.50
2018-12-31T16:11:53.099Z,56.63
2018-12-31T16:14:21.986Z,33.00
2018-12-31T16:17:10.485Z,50.23
2018-12-31T16:19:52.734Z,42.05
2018-12-31T16:22:41.025Z,35.15
2018-12-31T16:25:24.280Z,37.40
2018-12-31T16:28:12.398Z,35.28
2018-12-31T16:30:54.487Z,30.60
2018-12-31T16:33:42.707Z,39.98
2018-12-31T16:36:25.319Z,34.10
2018-12-31T16:39:13.705Z,39.48
2018-12-31T16:41:55.845Z,36.80
2018-12-31T16:44:44.570Z,36.55
2018-12-31T16:47:26.327Z,37.85
2018-12-31T16:50:10.476Z,40.40
2018-12-31T16:52:53.866Z,44.90
2018-12-31T16:55:22.727Z,44.13
2018-12-31T16:58:10.772Z,39.30
2018-12-31T17:00:53.321Z,39.15
2018-12-31T17:03:40.969Z,41.15
2018-12-31T17:06:29.395Z,38.55
2018-12-31T17:09:12.398Z,38.78
2018-12-31T17:12:00.590Z,37.40
2018-12-31T17:14:42.732Z,41.23
2018-12-31T17:17:31.170Z,44.27
2018-12-31T17:20:14.539Z,41.88
2018-12-31T17:23:04.268Z,39.38
2018-12-31T17:25:33.170Z,41.83
2018-12-31T17:28:02.308Z,41.60
2018-12-31T17:30:31.200Z,43.08
2018-12-31T17:33:01.423Z,44.40
2018-12-31T17:35:30.464Z,52.98
2018-12-31T17:37:59.197Z,42.27
2018-12-31T17:40:47.232Z,47.48
2018-12-31T17:43:35.577Z,43.10
2018-12-31T17:46:04.815Z,41.88
2018-12-31T17:48:33.856Z,42.03
2018-12-31T17:51:02.726Z,36.77
2018-12-31T17:53:50.804Z,43.73
2018-12-31T17:56:32.771Z,45.73
2018-12-31T17:59:21.224Z,40.28
2018-12-31T18:02:09.313Z,42.43
2018-12-31T18:04:38.329Z,49.75
2018-12-31T18:07:27.246Z,52.83
2018-12-31T18:10:09.218Z,54.13
2018-12-31T18:12:57.583Z,59.77
2018-12-31T18:15:43.730Z,46.60
2018-12-31T18:18:32.163Z,56.48
2018-12-31T18:21:13.780Z,46.10
2018-12-31T18:24:01.805Z,47.43
2018-12-31T18:26:44.315Z,47.25
2018-12-31T18:29:32.448Z,43.78
2018-12-31T18:32:15.627Z,47.53
2018-12-31T18:35:03.789Z,49.85
2018-12-31T18:37:47.306Z,39.92
2018-12-31T18:40:35.326Z,54.70
2018-12-31T18:43:19.418Z,55.63
2018-12-31T18:46:07.725Z,69.97
2018-12-31T18:48:36.754Z,47.70
2018-12-31T18:51:24.981Z,46.18
2018-12-31T18:54:07.292Z,37.15
2018-12-31T18:56:55.603Z,47.70
2018-12-31T18:59:38.672Z,56.95
2018-12-31T19:02:21.185Z,45.23
2018-12-31T19:05:11.165Z,52.53
2018-12-31T19:07:53.087Z,40.98
2018-12-31T19:10:41.107Z,46.13
2018-12-31T19:13:23.586Z,43.10
2018-12-31T19:15:52.317Z,45.78
2018-12-31T19:18:40.517Z,40.75
2018-12-31T19:21:22.156Z,46.23
2018-12-31T19:23:51.467Z,34.08
2018-12-31T19:26:34.669Z,34.00
2018-12-31T19:29:16.749Z,30.32
2018-12-31T19:32:05.059Z,38.35
2018-12-31T19:34:47.047Z,34.20
2018-12-31T19:37:35.064Z,38.67
2018-12-31T19:40:18.993Z,35.48
2018-12-31T19:43:07.003Z,35.43
2018-12-31T19:45:49.145Z,53.10
2018-12-31T19:48:37.534Z,40.70
2018-12-31T19:51:19.757Z,43.42
2018-12-31T19:54:02.773Z,42.05
2018-12-31T19:56:50.958Z,39.42
2018-12-31T19:59:34.330Z,46.05
2018-12-31T20:02:22.898Z,55.15
2018-12-31T20:05:04.682Z,61.85
2018-12-31T20:07:52.856Z,129.60
2018-12-31T20:10:34.949Z,59.05
2018-12-31T20:13:23.354Z,50.52
2018-12-31T20:16:05.768Z,42.73
2018-12-31T20:18:54.007Z,57.95
2018-12-31T20:21:37.462Z,52.65
2018-12-31T20:24:25.533Z,44.15
2018-12-31T20:27:07.916Z,46.30
2018-12-31T20:29:36.764Z,63.55
2018-12-31T20:32:24.921Z,79.27
2018-12-31T20:35:07.010Z,66.02
2018-12-31T20:37:55.172Z,52.88
2018-12-31T20:40:36.883Z,44.53
2018-12-31T20:43:25.230Z,46.95
2018-12-31T20:46:08.700Z,40.78
2018-12-31T20:48:50.118Z,47.48
2018-12-31T20:51:38.186Z,47.35
2018-12-31T20:54:19.926Z,53.68
2018-12-31T20:57:08.846Z,53.92
2018-12-31T20:59:56.917Z,48.38
2018-12-31T21:02:40.799Z,57.83
2018-12-31T21:05:25.297Z,57.55
2018-12-31T21:08:14.475Z,57.45
2018-12-31T21:10:57.371Z,55.90
2018-12-31T21:13:26.619Z,52.58
2018-12-31T21:16:14.610Z,40.17
2018-12-31T21:18:56.985Z,41.35
2018-12-31T21:21:45.104Z,45.83
2018-12-31T21:24:27.260Z,53.50
2018-12-31T21:27:15.394Z,46.85
2018-12-31T21:29:45.670Z,56.28
2018-12-31T21:32:14.587Z,64.00
2018-12-31T21:35:02.853Z,65.75
2018-12-31T21:37:31.668Z,67.97
2018-12-31T21:40:00.522Z,63.95
2018-12-31T21:42:29.357Z,63.92
2018-12-31T21:45:00.184Z,59.40
2018-12-31T21:47:28.979Z,54.03
2018-12-31T21:49:57.730Z,63.30
2018-12-31T21:52:47.739Z,51.92
2018-12-31T21:55:29.947Z,43.58
2018-12-31T21:58:18.050Z,42.15
2018-12-31T22:01:00.937Z,52.78
2018-12-31T22:03:49.245Z,43.28
2018-12-31T22:06:32.203Z,37.67
2018-12-31T22:09:16.256Z,42.15
2018-12-31T22:11:58.923Z,35.90
2018-12-31T22:14:47.134Z,41.83
2018-12-31T22:17:16.011Z,44.85
2018-12-31T22:20:05.558Z,39.65
2018-12-31T22:22:53.899Z,42.00
2018-12-31T22:25:22.757Z,53.10
2018-12-31T22:28:10.838Z,55.35
2018-12-31T22:30:58.865Z,57.10
2018-12-31T22:33:41.262Z,62.62
2018-12-31T22:36:10.146Z,56.37
2018-12-31T22:38:39.024Z,55.58
2018-12-31T22:41:09.681Z,48.85
2018-12-31T22:43:57.841Z,55.85
2018-12-31T22:46:46.107Z,54.60
2018-12-31T22:49:27.922Z,63.45
2018-12-31T22:51:56.834Z,55.67
2018-12-31T22:54:45.147Z,65.12
2018-12-31T22:57:28.078Z,129.70
2018-12-31T22:59:56.817Z,349.20
2018-12-31T23:02:45.229Z,466.82
2018-12-31T23:05:31.263Z,649.30
2018-12-31T23:08:19.477Z,547.25
2018-12-31T23:11:01.359Z,441.32
2018-12-31T23:13:49.517Z,573.90
2018-12-31T23:16:31.717Z,707.50
2018-12-31T23:19:20.185Z,536.70
2018-12-31T23:24:51.155Z,654.83
2018-12-31T23:27:39.509Z,653.83
2018-12-31T23:30:27.745Z,653.95
2018-12-31T23:33:10.588Z,636.92
2018-12-31T23:35:51.939Z,596.63
2018-12-31T23:38:40.208Z,607.70
2018-12-31T23:41:09.117Z,650.00
2018-12-31T23:43:57.319Z,687.60
2018-12-31T23:46:45.469Z,593.27
2018-12-31T23:49:33.567Z,688.72
2018-12-31T23:52:02.438Z,501.57
2018-12-31T23:54:50.644Z,481.57
2018-12-31T23:57:19.467Z,508.70
